createdAt,value
2023-02-22T00:00:43.014Z,9.50
2023-02-22T00:03:27.578Z,9.50
2023-02-22T00:05:59.945Z,9.50
2023-02-22T00:08:30.590Z,9.60
2023-02-22T00:11:02.776Z,9.40
2023-02-22T00:13:29.908Z,9.40
2023-02-22T00:16:00.530Z,9.40
2023-02-22T00:18:28.835Z,9.40
2023-02-22T00:21:00.119Z,9.40
2023-02-22T00:23:29.735Z,9.40
2023-02-22T00:25:57.815Z,9.40
2023-02-22T00:28:24.976Z,9.30
2023-02-22T00:30:52.269Z,9.30
2023-02-22T00:33:19.068Z,9.30
2023-02-22T00:35:46.062Z,9.20
2023-02-22T00:38:15.313Z,9.30
2023-02-22T00:40:42.425Z,9.20
2023-02-22T00:43:09.435Z,9.20
2023-02-22T00:45:37.340Z,9.20
2023-02-22T00:48:05.941Z,9.20
2023-02-22T00:50:33.424Z,9.20
2023-02-22T00:53:01.620Z,9.10
2023-02-22T00:55:32.816Z,9.10
2023-02-22T00:58:00.160Z,9.10
2023-02-22T01:00:29.680Z,10.10
2023-02-22T01:02:57.194Z,9.10
2023-02-22T01:05:27.471Z,9.10
2023-02-22T01:07:56.405Z,9.00
2023-02-22T01:10:25.410Z,9.00
2023-02-22T01:12:52.742Z,9.00
2023-02-22T01:15:24.114Z,10.00
2023-02-22T01:17:54.623Z,9.00
2023-02-22T01:20:23.364Z,9.00
2023-02-22T01:22:53.278Z,9.00
2023-02-22T01:25:23.031Z,9.00
2023-02-22T01:27:50.475Z,9.00
2023-02-22T01:30:21.869Z,8.90
2023-02-22T01:32:48.878Z,8.90
2023-02-22T01:35:18.511Z,8.90
2023-02-22T01:37:45.910Z,8.80
2023-02-22T01:40:21.279Z,8.80
2023-02-22T01:42:52.380Z,8.80
2023-02-22T01:45:32.765Z,8.80
2023-02-22T01:48:19.863Z,9.00
2023-02-22T01:50:57.495Z,8.80
2023-02-22T01:53:28.504Z,8.80
2023-02-22T01:55:56.571Z,8.90
2023-02-22T01:58:26.062Z,8.70
2023-02-22T02:00:52.776Z,8.70
2023-02-22T02:03:34.820Z,8.70
2023-02-22T02:06:05.243Z,8.80
2023-02-22T02:09:11.978Z,8.70
2023-02-22T02:11:40.708Z,8.70
2023-02-22T02:14:09.311Z,8.60
2023-02-22T02:16:42.088Z,8.70
2023-02-22T02:19:16.464Z,8.60
2023-02-22T02:22:14.627Z,8.60
2023-02-22T02:24:57.499Z,8.60
2023-02-22T02:27:46.224Z,8.50
2023-02-22T02:30:22.154Z,8.60
2023-02-22T02:33:11.942Z,8.50
2023-02-22T02:36:00.835Z,8.50
2023-02-22T02:38:45.619Z,8.40
2023-02-22T02:41:18.983Z,8.50
2023-02-22T02:44:00.323Z,8.60
2023-02-22T02:46:37.164Z,8.60
2023-02-22T02:49:15.022Z,8.50
2023-02-22T02:51:48.016Z,8.60
2023-02-22T02:54:16.112Z,8.50
2023-02-22T02:56:42.931Z,8.50
2023-02-22T02:59:31.095Z,8.40
2023-02-22T03:02:34.278Z,8.40
2023-02-22T03:05:23.534Z,8.40
2023-02-22T03:08:07.853Z,8.40
2023-02-22T03:10:56.546Z,8.60
2023-02-22T03:13:42.072Z,8.40
2023-02-22T03:16:30.554Z,8.40
2023-02-22T03:19:11.686Z,8.40
2023-02-22T03:22:00.309Z,8.40
2023-02-22T03:24:53.128Z,8.40
2023-02-22T03:27:34.135Z,8.40
2023-02-22T03:30:07.383Z,8.30
2023-02-22T03:32:39.355Z,8.30
2023-02-22T03:35:10.844Z,8.90
2023-02-22T03:37:50.662Z,8.30
2023-02-22T03:40:27.096Z,8.40
2023-02-22T03:43:07.070Z,8.40
2023-02-22T03:45:34.842Z,8.40
2023-02-22T03:48:30.443Z,8.30
2023-02-22T03:50:58.512Z,8.40
2023-02-22T03:53:25.780Z,8.30
2023-02-22T03:55:55.569Z,8.30
2023-02-22T03:58:24.254Z,8.40
2023-02-22T04:00:53.230Z,8.60
2023-02-22T04:03:21.704Z,8.40
2023-02-22T04:05:48.767Z,8.30
2023-02-22T04:08:16.855Z,8.30
2023-02-22T04:10:43.619Z,8.20
2023-02-22T04:13:10.797Z,8.50
2023-02-22T04:15:37.866Z,8.20
2023-02-22T04:18:05.958Z,8.20
2023-02-22T04:20:34.849Z,8.20
2023-02-22T04:23:01.686Z,8.70
2023-02-22T04:25:28.773Z,8.20
2023-02-22T04:27:55.487Z,8.20
2023-02-22T04:30:22.565Z,8.20
2023-02-22T04:32:49.554Z,8.10
2023-02-22T04:35:16.466Z,8.10
2023-02-22T04:37:43.198Z,8.10
2023-02-22T04:40:11.518Z,8.10
2023-02-22T04:42:39.717Z,8.10
2023-02-22T04:45:09.520Z,8.10
2023-02-22T04:47:37.290Z,8.10
2023-02-22T04:50:08.201Z,8.10
2023-02-22T04:52:35.058Z,8.10
2023-02-22T04:55:01.951Z,8.10
2023-02-22T04:57:29.966Z,8.10
2023-02-22T04:59:57.151Z,8.10
2023-02-22T05:02:24.049Z,8.10
2023-02-22T05:04:50.962Z,8.00
2023-02-22T05:07:18.059Z,8.10
2023-02-22T05:09:44.764Z,8.10
2023-02-22T05:12:11.528Z,8.00
2023-02-22T05:14:38.719Z,8.10
2023-02-22T05:17:05.584Z,8.10
2023-02-22T05:19:32.486Z,8.00
2023-02-22T05:21:59.245Z,8.20
2023-02-22T05:24:26.590Z,8.00
2023-02-22T05:26:53.583Z,8.00
2023-02-22T05:29:21.643Z,8.00
2023-02-22T05:31:49.641Z,8.00
2023-02-22T05:34:17.147Z,8.00
2023-02-22T05:36:44.047Z,8.00
2023-02-22T05:39:10.921Z,8.00
2023-02-22T05:41:37.793Z,7.90
2023-02-22T05:44:04.831Z,8.00
2023-02-22T05:46:31.539Z,8.10
2023-02-22T05:48:58.318Z,8.00
2023-02-22T05:51:25.167Z,8.20
2023-02-22T05:53:52.605Z,8.00
2023-02-22T05:56:27.653Z,7.90
2023-02-22T05:58:54.748Z,7.90
2023-02-22T06:01:22.095Z,7.90
2023-02-22T06:03:52.900Z,8.40
2023-02-22T06:06:22.261Z,7.80
2023-02-22T06:08:49.184Z,7.80
2023-02-22T06:11:16.327Z,7.90
2023-02-22T06:13:51.184Z,7.80
2023-02-22T06:16:18.679Z,7.80
2023-02-22T06:18:45.487Z,7.80
2023-02-22T06:21:12.227Z,7.90
2023-02-22T06:23:39.079Z,7.80
2023-02-22T06:26:06.081Z,8.90
2023-02-22T06:28:32.866Z,7.80
2023-02-22T06:30:59.603Z,7.80
2023-02-22T06:33:26.343Z,7.70
2023-02-22T06:35:53.227Z,7.70
2023-02-22T06:38:24.549Z,7.80
2023-02-22T06:40:51.904Z,8.00
2023-02-22T06:43:18.670Z,7.80
2023-02-22T06:45:45.659Z,7.80
2023-02-22T06:48:12.813Z,7.80
2023-02-22T06:50:39.573Z,7.80
2023-02-22T06:53:06.342Z,7.70
2023-02-22T06:55:38.387Z,8.80
2023-02-22T06:58:05.673Z,7.90
2023-02-22T07:00:33.181Z,8.00
2023-02-22T07:03:00.950Z,7.90
2023-02-22T07:05:28.854Z,8.00
2023-02-22T07:08:02.920Z,8.60
2023-02-22T07:10:31.934Z,8.00
2023-02-22T07:12:58.804Z,8.00
2023-02-22T07:15:27.920Z,8.10
2023-02-22T07:17:55.095Z,8.60
2023-02-22T07:20:22.732Z,8.70
2023-02-22T07:22:49.997Z,8.10
2023-02-22T07:25:17.223Z,8.20
2023-02-22T07:27:44.198Z,8.20
2023-02-22T07:30:19.791Z,8.40
2023-02-22T07:32:47.812Z,8.20
2023-02-22T07:35:20.160Z,8.20
2023-02-22T07:37:48.246Z,8.30
2023-02-22T07:40:16.827Z,8.30
2023-02-22T07:43:03.763Z,8.30
2023-02-22T07:45:34.803Z,8.30
2023-02-22T07:48:03.740Z,8.40
2023-02-22T07:50:32.300Z,8.30
2023-02-22T07:53:04.523Z,8.50
2023-02-22T07:55:32.701Z,8.50
2023-02-22T07:58:02.344Z,8.60
2023-02-22T08:00:30.609Z,8.70
2023-02-22T08:02:57.737Z,8.90
2023-02-22T08:05:26.975Z,8.90
2023-02-22T08:07:53.747Z,9.10
2023-02-22T08:10:23.341Z,9.30
2023-02-22T08:12:50.977Z,9.40
2023-02-22T08:15:22.407Z,9.40
2023-02-22T08:17:49.138Z,9.60
2023-02-22T08:20:16.084Z,9.70
2023-02-22T08:22:46.561Z,9.90
2023-02-22T08:25:15.596Z,10.20
2023-02-22T08:27:43.944Z,10.10
2023-02-22T08:30:16.902Z,10.30
2023-02-22T08:32:45.556Z,10.40
2023-02-22T08:35:13.813Z,10.50
2023-02-22T08:37:49.391Z,10.60
2023-02-22T08:40:21.452Z,10.50
2023-02-22T08:42:48.531Z,10.60
2023-02-22T08:45:16.047Z,10.80
2023-02-22T08:47:43.639Z,10.90
2023-02-22T08:50:19.308Z,11.00
2023-02-22T08:52:46.121Z,11.10
2023-02-22T08:55:12.942Z,11.20
2023-02-22T08:57:39.669Z,11.30
2023-02-22T09:00:07.269Z,11.40
2023-02-22T09:02:34.136Z,11.50
2023-02-22T09:05:00.965Z,11.60
2023-02-22T09:07:27.806Z,11.60
2023-02-22T09:09:54.674Z,11.70
2023-02-22T09:12:21.554Z,11.70
2023-02-22T09:14:48.348Z,11.70
2023-02-22T09:17:15.160Z,11.70
2023-02-22T09:19:42.200Z,12.70
2023-02-22T09:22:08.940Z,11.80
2023-02-22T09:24:36.151Z,11.80
2023-02-22T09:27:04.441Z,11.90
2023-02-22T09:29:31.484Z,11.90
2023-02-22T09:31:59.154Z,12.00
2023-02-22T09:34:29.769Z,12.00
2023-02-22T09:36:58.264Z,12.00
2023-02-22T09:39:25.700Z,12.10
2023-02-22T09:42:15.921Z,12.20
2023-02-22T09:44:53.629Z,12.20
2023-02-22T09:47:32.632Z,12.20
2023-02-22T09:50:18.306Z,12.30
2023-02-22T09:52:56.256Z,12.30
2023-02-22T09:55:39.190Z,12.30
2023-02-22T09:58:28.601Z,12.40
2023-02-22T10:01:01.040Z,12.50
2023-02-22T10:03:30.459Z,12.60
2023-02-22T10:06:04.728Z,12.60
2023-02-22T10:08:34.568Z,12.70
2023-02-22T10:11:22.364Z,12.80
2023-02-22T10:13:55.001Z,12.80
2023-02-22T10:16:34.165Z,12.90
2023-02-22T10:19:38.433Z,13.00
2023-02-22T10:22:17.516Z,13.10
2023-02-22T10:25:14.591Z,13.10
2023-02-22T10:28:13.502Z,13.10
2023-02-22T10:30:49.436Z,13.20
2023-02-22T10:33:20.893Z,13.20
2023-02-22T10:35:48.581Z,13.30
2023-02-22T10:38:24.769Z,13.30
2023-02-22T10:41:05.109Z,13.30
2023-02-22T10:43:32.851Z,13.30
2023-02-22T10:46:03.577Z,13.40
2023-02-22T10:48:35.482Z,14.60
2023-02-22T10:51:05.162Z,13.50
2023-02-22T10:53:33.152Z,13.60
2023-02-22T10:56:16.377Z,13.70
2023-02-22T10:59:05.918Z,13.70
2023-02-22T11:01:32.855Z,13.80
2023-02-22T11:04:16.059Z,13.80
2023-02-22T11:06:45.775Z,13.80
2023-02-22T11:09:24.078Z,13.90
2023-02-22T11:12:08.625Z,13.90
2023-02-22T11:14:35.358Z,13.90
2023-02-22T11:17:08.767Z,14.00
2023-02-22T11:19:38.280Z,14.00
2023-02-22T11:22:42.113Z,13.90
2023-02-22T11:25:17.890Z,13.90
2023-02-22T11:27:47.062Z,13.90
2023-02-22T11:30:27.026Z,14.00
2023-02-22T11:33:00.385Z,14.00
2023-02-22T11:35:35.401Z,13.90
2023-02-22T11:38:22.117Z,14.10
2023-02-22T11:41:08.164Z,14.00
2023-02-22T11:43:35.279Z,14.10
2023-02-22T11:46:32.723Z,14.10
2023-02-22T11:49:08.927Z,14.20
2023-02-22T11:52:06.627Z,14.30
2023-02-22T11:54:47.560Z,14.30
2023-02-22T11:57:46.396Z,14.30
2023-02-22T12:00:54.028Z,14.30
2023-02-22T12:03:35.936Z,14.30
2023-02-22T12:06:10.644Z,14.40
2023-02-22T12:08:55.255Z,14.40
2023-02-22T12:11:45.002Z,14.50
2023-02-22T12:14:34.161Z,14.50
2023-02-22T12:17:23.442Z,14.50
2023-02-22T12:20:28.645Z,14.50
2023-02-22T12:23:14.129Z,14.60
2023-02-22T12:25:58.657Z,14.60
2023-02-22T12:28:59.508Z,14.70
2023-02-22T12:31:35.357Z,14.80
2023-02-22T12:34:12.042Z,14.90
2023-02-22T12:36:53.562Z,14.80
2023-02-22T12:39:59.630Z,14.80
2023-02-22T12:42:49.687Z,14.80
2023-02-22T12:45:37.345Z,14.90
2023-02-22T12:48:52.410Z,15.00
2023-02-22T12:51:51.333Z,14.90
2023-02-22T12:54:25.521Z,15.00
2023-02-22T12:57:11.510Z,15.00
2023-02-22T12:59:53.414Z,15.10
2023-02-22T13:02:35.274Z,15.10
2023-02-22T13:05:02.894Z,15.10
2023-02-22T13:07:46.040Z,15.10
2023-02-22T13:10:28.483Z,15.20
2023-02-22T13:12:58.146Z,15.20
2023-02-22T13:15:37.311Z,15.20
2023-02-22T13:18:26.882Z,15.20
2023-02-22T13:21:02.412Z,15.10
2023-02-22T13:23:55.967Z,15.10
2023-02-22T13:26:29.850Z,15.10
2023-02-22T13:29:09.639Z,15.10
2023-02-22T13:31:57.652Z,15.10
2023-02-22T13:34:59.342Z,15.10
2023-02-22T13:37:53.077Z,15.10
2023-02-22T13:40:37.953Z,15.10
2023-02-22T13:43:43.257Z,15.20
2023-02-22T13:46:44.784Z,15.20
2023-02-22T13:49:50.827Z,15.20
2023-02-22T13:52:24.866Z,15.20
2023-02-22T13:54:56.299Z,15.20
2023-02-22T13:57:29.656Z,15.30
2023-02-22T14:00:23.047Z,15.30
2023-02-22T14:03:13.655Z,15.40
2023-02-22T14:05:44.765Z,15.30
2023-02-22T14:08:17.405Z,15.30
2023-02-22T14:10:44.653Z,15.30
2023-02-22T14:13:12.411Z,15.30
2023-02-22T14:16:08.178Z,15.30
2023-02-22T14:18:45.814Z,15.30
2023-02-22T14:21:22.093Z,15.30
2023-02-22T14:23:49.708Z,15.30
2023-02-22T14:26:26.596Z,15.40
2023-02-22T14:28:57.990Z,15.50
2023-02-22T14:31:36.836Z,15.50
2023-02-22T14:34:21.570Z,15.50
2023-02-22T14:37:01.067Z,15.40
2023-02-22T14:39:32.171Z,15.40
2023-02-22T14:42:14.669Z,15.40
2023-02-22T14:44:52.773Z,15.40
2023-02-22T14:47:41.149Z,15.40
2023-02-22T14:50:17.187Z,15.40
2023-02-22T14:52:48.740Z,15.40
2023-02-22T14:55:25.799Z,15.50
2023-02-22T14:58:35.838Z,15.30
2023-02-22T15:01:20.305Z,15.40
2023-02-22T15:03:51.478Z,15.30
2023-02-22T15:06:28.535Z,15.30
2023-02-22T15:09:25.085Z,15.30
2023-02-22T15:12:19.448Z,15.30
2023-02-22T15:14:48.487Z,15.30
2023-02-22T15:17:24.967Z,15.30
2023-02-22T15:19:52.737Z,15.30
2023-02-22T15:22:26.280Z,15.30
2023-02-22T15:25:06.407Z,15.40
2023-02-22T15:27:37.403Z,15.30
2023-02-22T15:30:16.522Z,15.30
2023-02-22T15:33:01.368Z,15.30
2023-02-22T15:35:31.649Z,15.30
2023-02-22T15:38:06.490Z,15.20
2023-02-22T15:40:35.478Z,15.20
2023-02-22T15:43:10.257Z,15.10
2023-02-22T15:45:42.953Z,15.10
2023-02-22T15:48:14.576Z,15.10
2023-02-22T15:51:00.649Z,15.10
2023-02-22T15:53:32.991Z,15.10
2023-02-22T15:56:02.549Z,15.20
2023-02-22T15:58:30.167Z,15.20
2023-02-22T16:01:14.247Z,15.20
2023-02-22T16:03:52.318Z,15.10
2023-02-22T16:06:30.546Z,15.10
2023-02-22T16:08:59.989Z,15.00
2023-02-22T16:11:34.666Z,15.00
2023-02-22T16:14:07.926Z,15.00
2023-02-22T16:16:41.618Z,14.90
2023-02-22T16:19:44.116Z,14.90
2023-02-22T16:22:33.734Z,14.90
2023-02-22T16:25:18.346Z,14.80
2023-02-22T16:28:06.469Z,14.80
2023-02-22T16:30:35.478Z,14.70
2023-02-22T16:33:13.607Z,14.70
2023-02-22T16:35:43.386Z,14.70
2023-02-22T16:38:16.884Z,14.70
2023-02-22T16:40:53.947Z,14.70
2023-02-22T16:43:26.104Z,14.80
2023-02-22T16:45:53.328Z,14.70
2023-02-22T16:48:29.939Z,14.60
2023-02-22T16:51:02.062Z,14.60
2023-02-22T16:53:31.813Z,14.60
2023-02-22T16:56:04.298Z,14.60
2023-02-22T16:58:34.911Z,14.60
2023-02-22T17:01:01.763Z,14.60
2023-02-22T17:03:28.596Z,14.60
2023-02-22T17:05:55.640Z,14.60
2023-02-22T17:08:22.697Z,14.60
2023-02-22T17:10:51.537Z,14.50
2023-02-22T17:13:26.751Z,14.50
2023-02-22T17:15:57.049Z,14.50
2023-02-22T17:18:28.616Z,14.50
2023-02-22T17:20:56.287Z,14.50
2023-02-22T17:23:24.092Z,14.50
2023-02-22T17:25:56.085Z,14.50
2023-02-22T17:28:24.893Z,14.40
2023-02-22T17:30:53.547Z,14.40
2023-02-22T17:33:26.690Z,14.40
2023-02-22T17:35:55.481Z,14.40
2023-02-22T17:38:22.999Z,14.40
2023-02-22T17:40:54.715Z,14.30
2023-02-22T17:43:22.896Z,14.30
2023-02-22T17:45:49.948Z,14.30
2023-02-22T17:48:18.178Z,14.30
2023-02-22T17:50:46.764Z,14.30
2023-02-22T17:53:14.118Z,14.20
2023-02-22T17:55:42.661Z,14.40
2023-02-22T17:58:14.781Z,14.20
2023-02-22T18:00:44.394Z,14.20
2023-02-22T18:03:15.429Z,14.10
2023-02-22T18:05:47.661Z,14.10
2023-02-22T18:08:15.406Z,14.10
2023-02-22T18:10:43.763Z,14.20
2023-02-22T18:13:16.799Z,14.10
2023-02-22T18:15:44.240Z,13.90
2023-02-22T18:18:11.487Z,13.90
2023-02-22T18:20:43.842Z,13.90
2023-02-22T18:23:19.503Z,13.80
2023-02-22T18:26:07.726Z,13.90
2023-02-22T18:28:37.660Z,13.80
2023-02-22T18:31:15.965Z,13.70
2023-02-22T18:33:47.694Z,13.60
2023-02-22T18:36:15.897Z,13.60
2023-02-22T18:38:43.770Z,13.60
2023-02-22T18:41:16.047Z,13.60
2023-02-22T18:43:43.592Z,13.50
2023-02-22T18:46:13.107Z,13.40
2023-02-22T18:48:40.042Z,13.40
2023-02-22T18:51:09.955Z,13.40
2023-02-22T18:53:38.087Z,13.30
2023-02-22T18:56:07.064Z,13.30
2023-02-22T18:58:33.989Z,13.20
2023-02-22T19:01:03.881Z,13.20
2023-02-22T19:03:32.399Z,13.20
2023-02-22T19:06:03.518Z,13.20
2023-02-22T19:08:32.605Z,13.00
2023-02-22T19:11:04.414Z,13.00
2023-02-22T19:13:32.391Z,13.00
2023-02-22T19:16:01.935Z,13.00
2023-02-22T19:18:28.767Z,12.90
2023-02-22T19:20:57.129Z,13.00
2023-02-22T19:23:24.067Z,13.10
2023-02-22T19:25:50.975Z,12.80
2023-02-22T19:28:18.038Z,12.90
2023-02-22T19:30:44.797Z,12.70
2023-02-22T19:33:11.640Z,12.70
2023-02-22T19:35:38.610Z,12.70
2023-02-22T19:38:05.369Z,12.70
2023-02-22T19:40:32.180Z,12.90
2023-02-22T19:42:58.903Z,12.70
2023-02-22T19:45:25.850Z,12.70
2023-02-22T19:47:55.947Z,12.60
2023-02-22T19:50:22.680Z,12.60
2023-02-22T19:52:49.622Z,12.50
2023-02-22T19:55:16.511Z,12.50
2023-02-22T19:57:50.130Z,12.50
2023-02-22T20:00:24.594Z,12.40
2023-02-22T20:03:05.661Z,12.50
2023-02-22T20:05:40.522Z,12.40
2023-02-22T20:08:07.690Z,12.50
2023-02-22T20:10:34.573Z,12.50
2023-02-22T20:13:01.920Z,12.40
2023-02-22T20:15:29.554Z,12.30
2023-02-22T20:17:57.891Z,12.40
2023-02-22T20:20:25.847Z,12.50
2023-02-22T20:22:53.296Z,12.40
2023-02-22T20:25:20.621Z,12.40
2023-02-22T20:27:47.442Z,12.40
2023-02-22T20:30:16.867Z,12.40
2023-02-22T20:32:43.875Z,12.30
2023-02-22T20:35:11.292Z,12.40
2023-02-22T20:37:40.398Z,12.30
2023-02-22T20:40:07.737Z,12.30
2023-02-22T20:42:34.575Z,12.20
2023-02-22T20:45:04.680Z,12.40
2023-02-22T20:47:32.036Z,12.20
2023-02-22T20:49:59.028Z,12.20
2023-02-22T20:52:25.904Z,12.20
2023-02-22T20:54:52.693Z,12.20
2023-02-22T20:57:19.449Z,12.30
2023-02-22T20:59:47.640Z,12.20
2023-02-22T21:02:14.422Z,12.30
2023-02-22T21:04:41.253Z,12.20
2023-02-22T21:07:08.121Z,12.20
2023-02-22T21:09:35.062Z,12.20
2023-02-22T21:12:01.859Z,13.50
2023-02-22T21:14:29.802Z,12.20
2023-02-22T21:16:56.564Z,12.20
2023-02-22T21:19:26.652Z,12.10
2023-02-22T21:21:59.014Z,12.10
2023-02-22T21:24:28.603Z,12.20
2023-02-22T21:26:58.597Z,12.20
2023-02-22T21:29:25.533Z,12.20
2023-02-22T21:31:52.493Z,12.10
2023-02-22T21:34:20.051Z,12.10
2023-02-22T21:36:47.356Z,12.10
2023-02-22T21:39:18.367Z,12.20
2023-02-22T21:41:50.678Z,12.10
2023-02-22T21:44:18.794Z,12.00
2023-02-22T21:46:48.826Z,12.30
2023-02-22T21:49:16.013Z,12.00
2023-02-22T21:51:44.714Z,12.00
2023-02-22T21:54:12.606Z,12.00
2023-02-22T21:56:41.834Z,12.30
2023-02-22T21:59:20.948Z,12.00
2023-02-22T22:01:55.810Z,11.90
2023-02-22T22:04:29.051Z,11.90
2023-02-22T22:06:58.303Z,11.90
2023-02-22T22:09:29.008Z,11.90
2023-02-22T22:11:58.449Z,11.90
2023-02-22T22:14:26.476Z,11.90
2023-02-22T22:16:58.469Z,11.90
2023-02-22T22:19:31.271Z,11.90
2023-02-22T22:21:58.575Z,11.90
2023-02-22T22:24:25.785Z,11.80
2023-02-22T22:26:55.866Z,11.80
2023-02-22T22:29:24.487Z,11.90
2023-02-22T22:31:52.077Z,11.80
2023-02-22T22:34:19.571Z,12.10
2023-02-22T22:36:46.770Z,11.80
2023-02-22T22:39:13.620Z,11.80
2023-02-22T22:41:41.763Z,11.80
2023-02-22T22:44:09.899Z,11.50
2023-02-22T22:46:41.021Z,11.80
2023-02-22T22:49:10.115Z,11.70
2023-02-22T22:51:37.455Z,11.80
2023-02-22T22:54:09.446Z,11.80
2023-02-22T22:56:38.047Z,11.80
2023-02-22T22:59:07.793Z,11.70
2023-02-22T23:01:39.912Z,11.70
2023-02-22T23:04:09.770Z,11.70
2023-02-22T23:06:42.323Z,11.80
2023-02-22T23:09:18.642Z,11.70
2023-02-22T23:11:50.725Z,11.70
2023-02-22T23:14:20.968Z,11.80
2023-02-22T23:16:49.198Z,11.70
2023-02-22T23:19:16.538Z,12.20
2023-02-22T23:21:46.344Z,12.50
2023-02-22T23:24:15.432Z,12.00
2023-02-22T23:26:43.222Z,11.60
2023-02-22T23:29:10.077Z,12.50
2023-02-22T23:31:39.645Z,11.60
2023-02-22T23:34:13.951Z,11.60
2023-02-22T23:36:46.996Z,11.60
2023-02-22T23:39:17.283Z,11.60
2023-02-22T23:41:44.181Z,11.60
2023-02-22T23:44:13.339Z,11.60
2023-02-22T23:46:41.268Z,11.60
2023-02-22T23:49:09.890Z,11.70
2023-02-22T23:51:44.580Z,11.70
2023-02-22T23:54:13.722Z,11.70
2023-02-22T23:56:47.176Z,11.70
2023-02-22T23:59:14.487Z,11.70
